Plant City, Florida
Current Conditions -  °F | °C
As of 10:15 AM on Monday 24 Nov 2014 (Local Time) from KPCM Reporting Station
Broken Clouds Broken Clouds  
Wind Chill: 82°   Ceiling: 1700
Heat Index: 89°   Visibility: 10mi
Dew Point: 75°   Wind: 10mph
Humidity: 79%   Direction: 200°SSW
Pressure: 30.01"   Gusts: 16mph
Location:  28.02°N, 82.12°W
Report Text: KPCM 241515Z AUTO 20009G14KT 10SM BKN017 BKN024 28/24 A3001 RMK AO2
Loading
Personal Weather Stations






























Interactive Weather Map New forecast layout! Learn more

10-Day Weather Forecast

Advertisements
Track Severe Weather on mobile